Time;durP1;ratioP1;P1;durP2;ratioP2;P2;SDS_P1;SDS_P2;PMS_P1;PMS_P2;Temp;Humidity;BMP_temperature;BMP_pressure;BME280_temperature;BME280_humidity;BME280_pressure;Samples;Min_cycle;Max_cycle;Signal;HPM_P1;HPM_P2
2021/05/22 00:00:46;;;;;;;0.80;0.50;;;21.80;50.10;;;;;;6296239;28;20017;-69
2021/05/22 00:03:47;;;;;;;1.23;0.60;;;21.80;50.10;;;;;;6294081;28;20477;-69
2021/05/22 00:06:47;;;;;;;0.70;0.50;;;21.80;50.20;;;;;;6295902;28;20165;-69
2021/05/22 00:09:48;;;;;;;1.20;0.60;;;21.80;50.10;;;;;;6276941;28;20029;-69
2021/05/22 00:12:49;;;;;;;0.60;0.40;;;21.80;50.10;;;;;;6272637;28;20036;-69
2021/05/22 00:15:50;;;;;;;0.68;0.55;;;21.80;50.20;;;;;;6295919;28;20020;-69
2021/05/22 00:18:50;;;;;;;0.73;0.50;;;21.80;50.20;;;;;;6304792;28;20027;-69
2021/05/22 00:21:51;;;;;;;0.75;0.60;;;21.80;50.20;;;;;;6320999;28;20020;-69
2021/05/22 00:24:52;;;;;;;0.50;0.50;;;21.80;50.20;;;;;;6320387;28;20042;-69
2021/05/22 00:27:52;;;;;;;0.55;0.52;;;21.80;50.20;;;;;;6320591;28;20036;-69
2021/05/22 00:30:53;;;;;;;0.80;0.60;;;21.80;50.20;;;;;;6270524;28;20116;-69
2021/05/22 00:33:53;;;;;;;0.95;0.60;;;21.80;50.20;;;;;;6285385;28;20047;-69
2021/05/22 00:36:54;;;;;;;0.60;0.50;;;21.80;50.20;;;;;;6319320;28;20023;-69
2021/05/22 00:39:55;;;;;;;0.98;0.50;;;21.80;50.20;;;;;;6304595;28;20025;-69
2021/05/22 00:42:56;;;;;;;0.80;0.60;;;21.80;50.20;;;;;;6295130;28;20427;-69
2021/05/22 00:45:57;;;;;;;1.27;0.60;;;21.80;50.20;;;;;;6294851;28;20535;-69
2021/05/22 00:48:57;;;;;;;1.30;0.73;;;21.80;50.20;;;;;;6294752;28;20028;-69
2021/05/22 00:51:58;;;;;;;0.57;0.40;;;21.80;50.20;;;;;;6294664;28;20053;-69
2021/05/22 00:54:58;;;;;;;0.60;0.52;;;21.80;50.20;;;;;;6294732;28;20103;-70
2021/05/22 00:58:00;;;;;;;0.82;0.55;;;21.80;50.20;;;;;;6294537;28;20052;-69
2021/05/22 01:01:03;;;;;;;0.68;0.63;;;21.80;50.20;;;;;;6294618;28;20363;-69
2021/05/22 01:04:04;;;;;;;0.70;0.43;;;21.80;50.20;;;;;;6294245;28;20028;-69
2021/05/22 01:07:05;;;;;;;0.40;0.40;;;21.90;50.20;;;;;;6295496;28;20424;-69
2021/05/22 01:10:07;;;;;;;0.30;0.30;;;21.80;50.20;;;;;;6319427;28;20027;-69
2021/05/22 01:13:11;;;;;;;0.63;0.50;;;21.80;50.20;;;;;;6319578;28;20039;-69
2021/05/22 01:16:14;;;;;;;0.60;0.50;;;21.80;50.20;;;;;;6299681;28;20017;-69
2021/05/22 01:19:42;;;;;;;0.93;0.50;;;21.80;50.20;;;;;;6294462;28;20082;-69
2021/05/22 01:22:52;;;;;;;0.57;0.50;;;21.80;50.20;;;;;;6293254;28;20020;-69
2021/05/22 01:25:56;;;;;;;0.65;0.55;;;21.80;50.20;;;;;;6278934;28;20051;-69
2021/05/22 01:28:58;;;;;;;0.80;0.40;;;21.80;50.20;;;;;;6269142;28;20017;-69
2021/05/22 01:31:58;;;;;;;0.82;0.50;;;21.80;50.30;;;;;;6293142;28;20401;-69
2021/05/22 01:34:59;;;;;;;0.43;0.43;;;21.80;50.20;;;;;;6294103;28;20108;-69
2021/05/22 01:38:00;;;;;;;0.30;0.30;;;21.80;50.20;;;;;;6293978;28;20032;-69
2021/05/22 01:41:02;;;;;;;0.57;0.52;;;21.80;50.20;;;;;;6293996;28;20020;-69
2021/05/22 01:44:04;;;;;;;0.82;0.60;;;21.80;50.30;;;;;;6292783;28;20112;-69
2021/05/22 01:47:05;;;;;;;1.05;0.55;;;21.80;50.20;;;;;;6294205;28;20045;-69
2021/05/22 01:50:06;;;;;;;0.52;0.47;;;21.80;50.20;;;;;;6293582;28;20071;-69
2021/05/22 01:53:09;;;;;;;0.52;0.50;;;21.80;50.20;;;;;;6293717;28;20051;-69
2021/05/22 01:56:11;;;;;;;0.63;0.50;;;21.80;50.20;;;;;;6293777;28;20024;-69
2021/05/22 01:59:12;;;;;;;0.93;0.57;;;21.80;50.20;;;;;;6293774;28;20119;-69
2021/05/22 02:02:13;;;;;;;0.68;0.40;;;21.80;50.20;;;;;;6293837;28;20021;-69
2021/05/22 02:05:16;;;;;;;0.93;0.60;;;21.80;50.20;;;;;;6292531;28;20024;-69
2021/05/22 02:08:20;;;;;;;0.63;0.50;;;21.80;50.30;;;;;;6292610;28;20031;-69
2021/05/22 02:11:21;;;;;;;0.55;0.50;;;21.80;50.20;;;;;;6293487;28;20039;-69
2021/05/22 02:14:33;;;;;;;0.80;0.50;;;21.80;50.30;;;;;;6293843;28;20039;-69
2021/05/22 02:17:33;;;;;;;0.40;0.38;;;21.80;50.20;;;;;;6285521;28;20021;-70
2021/05/22 02:20:34;;;;;;;0.50;0.50;;;21.90;50.30;;;;;;6287117;28;20078;-69
2021/05/22 02:23:43;;;;;;;0.82;0.50;;;21.80;50.30;;;;;;6273911;28;20051;-69
2021/05/22 02:26:44;;;;;;;0.98;0.60;;;21.80;50.20;;;;;;6293766;28;20565;-69
2021/05/22 02:29:46;;;;;;;0.43;0.40;;;21.80;50.30;;;;;;6297671;28;20024;-70
2021/05/22 02:32:49;;;;;;;0.50;0.40;;;21.80;50.30;;;;;;6298300;28;20107;-69
2021/05/22 02:35:52;;;;;;;1.02;0.63;;;21.80;50.30;;;;;;6297986;28;20028;-69
2021/05/22 02:38:53;;;;;;;0.63;0.47;;;21.90;50.30;;;;;;6296712;28;20428;-69
2021/05/22 02:41:58;;;;;;;0.85;0.45;;;21.90;50.30;;;;;;6298049;28;20036;-69
2021/05/22 02:45:01;;;;;;;0.52;0.50;;;21.90;50.30;;;;;;6298055;28;20086;-69
2021/05/22 02:48:05;;;;;;;0.60;0.50;;;21.90;50.30;;;;;;6296406;28;20033;-69
2021/05/22 02:51:09;;;;;;;0.68;0.50;;;21.90;50.30;;;;;;6295492;28;20044;-69
2021/05/22 02:54:09;;;;;;;0.55;0.50;;;21.90;50.30;;;;;;6297866;28;20056;-69
2021/05/22 02:57:12;;;;;;;0.50;0.50;;;21.80;50.20;;;;;;6308317;28;20376;-69
2021/05/22 03:00:13;;;;;;;0.77;0.65;;;21.80;50.20;;;;;;6322626;28;20023;-70
2021/05/22 03:03:16;;;;;;;0.65;0.55;;;21.90;50.30;;;;;;6322485;28;20023;-69
2021/05/22 03:06:16;;;;;;;0.50;0.40;;;21.80;50.20;;;;;;6321123;28;20074;-69
2021/05/22 03:09:17;;;;;;;0.90;0.45;;;21.80;50.20;;;;;;6272569;28;20566;-69
2021/05/22 03:12:21;;;;;;;0.50;0.40;;;21.90;50.30;;;;;;6272583;28;20036;-69
2021/05/22 03:15:22;;;;;;;0.52;0.45;;;21.80;50.20;;;;;;6270920;28;20029;-69
2021/05/22 03:18:23;;;;;;;0.68;0.50;;;21.80;50.30;;;;;;6275422;28;20021;-69
2021/05/22 03:21:25;;;;;;;0.40;0.40;;;21.80;50.30;;;;;;6272493;28;20029;-69
2021/05/22 03:24:26;;;;;;;0.90;0.40;;;21.90;50.30;;;;;;6296821;28;20489;-69
2021/05/22 03:27:26;;;;;;;0.85;0.40;;;21.80;50.30;;;;;;6296883;28;20027;-69
2021/05/22 03:30:27;;;;;;;0.98;0.50;;;21.80;50.20;;;;;;6296495;28;20095;-69
2021/05/22 03:33:28;;;;;;;0.80;0.50;;;21.80;50.20;;;;;;6295654;28;20428;-69
2021/05/22 03:36:28;;;;;;;0.60;0.50;;;21.90;50.30;;;;;;6296844;28;20131;-70
2021/05/22 03:39:29;;;;;;;1.00;0.60;;;21.80;50.30;;;;;;6296434;28;20104;-69
2021/05/22 03:42:29;;;;;;;0.40;0.40;;;21.80;50.30;;;;;;6296841;28;20096;-69
2021/05/22 03:45:30;;;;;;;2.10;0.50;;;21.90;50.30;;;;;;6296829;28;20029;-69
2021/05/22 03:48:31;;;;;;;0.70;0.70;;;21.80;50.20;;;;;;6295365;28;20021;-70
2021/05/22 03:51:32;;;;;;;0.40;0.35;;;21.80;50.20;;;;;;6306907;28;20059;-69
2021/05/22 03:54:33;;;;;;;0.65;0.40;;;21.90;50.30;;;;;;6320051;28;20058;-69
2021/05/22 03:57:33;;;;;;;0.50;0.40;;;21.80;50.20;;;;;;6321336;28;20020;-69
2021/05/22 04:00:35;;;;;;;0.90;0.70;;;21.80;50.20;;;;;;6321346;28;20020;-69
2021/05/22 04:03:36;;;;;;;0.60;0.45;;;21.80;50.20;;;;;;6307610;28;20108;-70
2021/05/22 04:06:36;;;;;;;0.63;0.50;;;21.80;50.20;;;;;;6296115;28;20027;-69
2021/05/22 04:09:37;;;;;;;0.70;0.40;;;21.80;50.90;;;;;;6294515;28;20059;-69
2021/05/22 04:12:37;;;;;;;0.50;0.47;;;21.90;50.30;;;;;;6295969;28;20103;-69
2021/05/22 04:15:39;;;;;;;0.50;0.40;;;21.80;50.20;;;;;;6296015;28;20042;-70
2021/05/22 04:18:39;;;;;;;0.90;0.40;;;21.90;50.30;;;;;;6294410;28;20066;-70
2021/05/22 04:21:40;;;;;;;0.40;0.40;;;21.80;50.30;;;;;;6294563;28;20020;-69
2021/05/22 04:24:41;;;;;;;0.75;0.40;;;21.80;50.30;;;;;;6311442;28;20146;-69
2021/05/22 04:27:41;;;;;;;0.28;0.20;;;21.80;50.90;;;;;;6307416;28;20086;-69
2021/05/22 04:30:42;;;;;;;0.80;0.60;;;21.80;50.20;;;;;;6295203;28;20033;-69
2021/05/22 04:33:43;;;;;;;0.63;0.50;;;21.80;50.20;;;;;;6301956;28;20106;-69
2021/05/22 04:36:43;;;;;;;0.43;0.40;;;21.80;50.20;;;;;;6320429;28;20070;-68
2021/05/22 04:39:44;;;;;;;0.40;0.40;;;21.90;50.30;;;;;;6319789;28;20032;-69
2021/05/22 04:42:45;;;;;;;0.63;0.40;;;21.90;50.20;;;;;;6295344;28;20017;-69
2021/05/22 04:45:45;;;;;;;0.47;0.47;;;21.90;50.20;;;;;;6317077;28;20079;-69
2021/05/22 04:48:46;;;;;;;0.40;0.38;;;21.80;50.90;;;;;;6320223;28;20056;-69
2021/05/22 04:51:46;;;;;;;0.68;0.60;;;21.90;50.30;;;;;;6319391;28;20055;-69
2021/05/22 04:54:48;;;;;;;0.75;0.55;;;21.80;50.20;;;;;;6320438;28;20052;-69
2021/05/22 04:57:48;;;;;;;0.88;0.50;;;21.80;50.20;;;;;;6320501;28;20589;-70
2021/05/22 05:00:49;;;;;;;0.80;0.80;;;21.90;50.30;;;;;;6278080;28;20047;-69
2021/05/22 05:03:50;;;;;;;0.50;0.38;;;21.90;50.30;;;;;;6292163;28;20021;-69
2021/05/22 05:06:51;;;;;;;0.50;0.50;;;21.90;50.20;;;;;;6270150;28;20496;-69
2021/05/22 05:09:52;;;;;;;0.45;0.35;;;21.90;50.20;;;;;;6284467;28;20024;-70
2021/05/22 05:12:53;;;;;;;0.73;0.40;;;21.90;50.30;;;;;;6319900;28;20038;-69
2021/05/22 05:15:54;;;;;;;0.65;0.40;;;21.90;50.20;;;;;;6318696;28;20084;-69
2021/05/22 05:18:55;;;;;;;0.60;0.40;;;21.80;50.20;;;;;;6294911;28;20024;-69
2021/05/22 05:21:55;;;;;;;0.73;0.47;;;21.90;50.30;;;;;;6317551;28;20362;-69
2021/05/22 05:24:56;;;;;;;1.13;0.47;;;21.90;50.30;;;;;;6319510;28;20447;-69
2021/05/22 05:27:57;;;;;;;1.27;0.40;;;21.90;50.30;;;;;;6318299;28;20030;-69
2021/05/22 05:30:57;;;;;;;0.73;0.50;;;21.90;50.30;;;;;;6304419;28;20397;-69
2021/05/22 05:33:58;;;;;;;0.77;0.43;;;21.90;50.30;;;;;;6294478;28;20162;-70
2021/05/22 05:36:58;;;;;;;0.57;0.40;;;21.90;50.30;;;;;;6294227;28;20119;-69
2021/05/22 05:39:59;;;;;;;0.30;0.30;;;21.90;50.30;;;;;;6296896;28;20023;-69
2021/05/22 05:43:02;;;;;;;0.43;0.38;;;21.90;50.30;;;;;;6319673;28;20020;-69
2021/05/22 05:46:03;;;;;;;0.77;0.50;;;21.90;50.20;;;;;;6317869;28;20617;-69
2021/05/22 05:49:04;;;;;;;0.82;0.40;;;21.90;50.20;;;;;;6319466;28;20024;-69
2021/05/22 05:52:05;;;;;;;0.47;0.30;;;21.90;50.30;;;;;;6316830;28;20043;-70
2021/05/22 05:55:06;;;;;;;0.35;0.22;;;21.90;50.20;;;;;;6316436;28;20032;-70
2021/05/22 05:58:06;;;;;;;0.85;0.40;;;21.90;50.20;;;;;;6293042;28;20127;-69
2021/05/22 06:01:08;;;;;;;0.40;0.30;;;21.90;50.30;;;;;;6292721;28;20027;-69
2021/05/22 06:04:09;;;;;;;0.25;0.25;;;21.90;50.30;;;;;;6297592;28;20512;-70
2021/05/22 06:07:09;;;;;;;0.70;0.52;;;21.90;50.20;;;;;;6298794;28;20020;-69
2021/05/22 06:10:11;;;;;;;0.25;0.22;;;21.90;50.30;;;;;;6298940;28;20035;-69
2021/05/22 06:13:11;;;;;;;0.57;0.47;;;21.90;50.30;;;;;;6298779;28;20107;-69
2021/05/22 06:16:20;;;;;;;0.35;0.30;;;21.90;50.30;;;;;;6296572;28;20499;-69
2021/05/22 06:19:21;;;;;;;0.50;0.40;;;21.90;50.30;;;;;;6274497;28;20497;-69
2021/05/22 06:22:21;;;;;;;0.43;0.22;;;21.90;50.30;;;;;;6273793;28;20025;-69
2021/05/22 06:25:22;;;;;;;0.47;0.30;;;21.90;50.30;;;;;;6273897;28;20055;-69
2021/05/22 06:28:23;;;;;;;0.85;0.50;;;21.90;50.30;;;;;;6292233;28;20035;-68
2021/05/22 06:31:23;;;;;;;0.25;0.20;;;21.90;50.30;;;;;;6293224;28;20028;-68
2021/05/22 06:34:24;;;;;;;0.30;0.30;;;21.90;50.30;;;;;;6296668;28;20029;-67
2021/05/22 06:37:25;;;;;;;2.03;0.40;;;21.90;50.30;;;;;;6297156;28;20024;-68
2021/05/22 06:40:25;;;;;;;0.63;0.30;;;21.90;50.30;;;;;;6308018;28;20028;-68
2021/05/22 06:43:27;;;;;;;0.40;0.30;;;21.90;50.30;;;;;;6300899;28;20028;-69
2021/05/22 06:49:31;;;;;;;0.63;0.40;;;21.80;50.30;;;;;;6299023;28;20028;-68
2021/05/22 06:52:32;;;;;;;0.40;0.30;;;21.90;50.40;;;;;;6307169;28;20074;-68
2021/05/22 06:55:34;;;;;;;0.88;0.70;;;21.90;50.40;;;;;;6297001;28;20396;-67
2021/05/22 06:58:35;;;;;;;0.43;0.40;;;21.90;50.30;;;;;;6297638;28;20035;-69
2021/05/22 07:01:35;;;;;;;0.68;0.30;;;21.90;50.40;;;;;;6295371;28;20391;-68
2021/05/22 07:04:36;;;;;;;0.60;0.32;;;21.90;50.40;;;;;;6296392;28;20028;-67
2021/05/22 07:07:38;;;;;;;0.50;0.40;;;21.90;50.40;;;;;;6294958;28;20641;-69
2021/05/22 07:10:39;;;;;;;0.80;0.40;;;21.90;50.40;;;;;;6295625;28;20024;-70
2021/05/22 07:13:40;;;;;;;0.30;0.30;;;21.90;50.40;;;;;;6296485;28;20031;-65
2021/05/22 07:16:42;;;;;;;0.77;0.30;;;21.90;50.40;;;;;;6289822;28;20057;-66
2021/05/22 07:19:42;;;;;;;0.40;0.30;;;21.90;51.10;;;;;;6291782;28;20033;-66
2021/05/22 07:22:43;;;;;;;0.80;0.45;;;21.90;50.40;;;;;;6288379;28;20074;-65
2021/05/22 07:25:44;;;;;;;0.80;0.40;;;21.90;50.40;;;;;;6321457;28;20032;-66
2021/05/22 07:28:44;;;;;;;2.35;0.30;;;21.90;50.40;;;;;;6295627;28;20031;-64
2021/05/22 07:31:46;;;;;;;0.40;0.40;;;21.90;50.40;;;;;;6295893;28;20032;-66
2021/05/22 07:34:47;;;;;;;0.30;0.30;;;21.90;50.40;;;;;;6320356;28;20525;-66
2021/05/22 07:37:48;;;;;;;0.55;0.40;;;21.90;50.40;;;;;;6315380;28;20099;-65
2021/05/22 07:40:49;;;;;;;0.50;0.40;;;21.90;50.50;;;;;;6295115;28;20032;-70
2021/05/22 07:43:49;;;;;;;0.75;0.40;;;21.90;50.50;;;;;;6309834;28;20085;-65
2021/05/22 07:46:50;;;;;;;0.90;0.40;;;21.90;50.50;;;;;;6319766;28;20028;-68
2021/05/22 07:49:52;;;;;;;0.28;0.28;;;21.90;50.50;;;;;;6307355;28;20265;-65
2021/05/22 07:52:53;;;;;;;1.20;0.45;;;21.90;50.50;;;;;;6300982;28;20024;-65
2021/05/22 07:55:55;;;;;;;0.80;0.47;;;21.90;50.40;;;;;;6293101;28;20028;-64
2021/05/22 07:58:55;;;;;;;12.40;1.67;;;21.80;50.40;;;;;;6300676;28;20033;-64
2021/05/22 08:01:56;;;;;;;13.57;1.95;;;21.80;50.20;;;;;;6295172;28;20028;-66
2021/05/22 08:04:56;;;;;;;12.93;2.15;;;21.80;49.50;;;;;;6302469;28;20021;-65
2021/05/22 08:07:57;;;;;;;18.30;1.50;;;21.80;49.60;;;;;;6301127;28;20032;-64
2021/05/22 08:10:58;;;;;;;12.95;1.48;;;21.80;49.00;;;;;;6321225;28;20074;-65
2021/05/22 08:13:58;;;;;;;13.68;1.80;;;21.80;49.30;;;;;;6309614;28;20468;-65
2021/05/22 08:16:59;;;;;;;12.05;1.52;;;21.80;49.30;;;;;;6305683;28;20043;-65
2021/05/22 08:20:00;;;;;;;9.43;1.48;;;21.90;49.40;;;;;;6309129;28;20012;-68
2021/05/22 08:23:00;;;;;;;9.68;1.38;;;21.90;49.50;;;;;;6297806;28;20073;-70
2021/05/22 08:26:01;;;;;;;13.35;1.40;;;21.90;49.60;;;;;;6312124;28;20362;-67
2021/05/22 08:29:03;;;;;;;5.18;1.48;;;21.90;49.60;;;;;;6302158;28;20032;-68
2021/05/22 08:32:04;;;;;;;7.22;1.40;;;21.90;49.70;;;;;;6301007;28;20058;-68
2021/05/22 08:35:06;;;;;;;7.60;1.17;;;21.80;49.60;;;;;;6294554;28;20036;-69
2021/05/22 08:38:07;;;;;;;5.50;1.13;;;21.90;49.80;;;;;;6296031;28;20021;-68
2021/05/22 08:41:09;;;;;;;9.75;1.55;;;21.90;49.80;;;;;;6319541;28;20469;-68
2021/05/22 08:44:09;;;;;;;2.88;1.20;;;21.90;49.80;;;;;;6307842;28;20028;-68
2021/05/22 08:47:11;;;;;;;8.43;1.15;;;21.90;49.90;;;;;;6317756;28;20060;-68
2021/05/22 08:50:13;;;;;;;3.88;0.90;;;21.90;50.10;;;;;;6317141;28;20127;-68
2021/05/22 08:53:14;;;;;;;6.95;1.10;;;21.90;50.10;;;;;;6292458;28;20603;-68
2021/05/22 08:56:16;;;;;;;9.48;1.25;;;21.90;50.10;;;;;;6301543;28;20020;-68
2021/05/22 08:59:16;;;;;;;5.65;1.23;;;21.90;50.10;;;;;;6293526;28;20017;-68
2021/05/22 09:02:19;;;;;;;5.05;1.20;;;21.90;50.10;;;;;;6292797;28;20588;-65
2021/05/22 09:05:31;;;;;;;5.60;1.50;;;21.90;50.10;;;;;;6294680;28;20489;-65
2021/05/22 09:08:32;;;;;;;2.90;0.90;;;21.90;50.10;;;;;;6293170;28;20385;-65
2021/05/22 09:11:47;;;;;;;4.75;1.20;;;21.90;50.10;;;;;;6293232;28;20351;-65
2021/05/22 09:14:49;;;;;;;4.93;1.02;;;21.90;50.20;;;;;;6293208;28;20048;-65
2021/05/22 09:17:51;;;;;;;5.75;1.05;;;21.90;50.20;;;;;;6293599;28;20024;-65
2021/05/22 09:20:51;;;;;;;7.88;1.40;;;21.90;50.20;;;;;;6292422;28;20024;-65
2021/05/22 09:23:58;;;;;;;1.88;0.70;;;21.90;50.20;;;;;;6292364;28;20028;-65
2021/05/22 09:27:09;;;;;;;3.17;1.08;;;21.90;50.20;;;;;;6304458;28;20025;-65
2021/05/22 09:30:14;;;;;;;2.42;0.80;;;21.90;50.20;;;;;;6294213;28;20016;-65
2021/05/22 09:33:21;;;;;;;2.30;0.90;;;21.90;50.20;;;;;;6293301;28;20021;-65
2021/05/22 09:36:21;;;;;;;1.73;0.90;;;21.90;50.20;;;;;;6292976;28;20032;-65
2021/05/22 09:39:22;;;;;;;3.72;0.77;;;21.90;50.20;;;;;;6285963;28;20090;-64
2021/05/22 09:42:27;;;;;;;2.42;1.00;;;21.90;50.20;;;;;;6293267;28;20037;-65
2021/05/22 09:45:33;;;;;;;0.98;0.60;;;21.90;50.20;;;;;;6296859;28;20043;-65
2021/05/22 09:48:36;;;;;;;2.25;0.73;;;21.90;50.20;;;;;;6276977;28;20024;-65
2021/05/22 09:51:56;;;;;;;1.05;0.60;;;21.90;50.20;;;;;;6270823;28;20114;-65
2021/05/22 09:54:58;;;;;;;0.93;0.55;;;21.90;50.30;;;;;;6272557;28;20047;-65
2021/05/22 09:57:59;;;;;;;1.98;0.65;;;21.90;50.30;;;;;;6292993;28;20474;-64
2021/05/22 10:01:00;;;;;;;1.55;0.70;;;21.90;50.40;;;;;;6291399;28;20028;-65
2021/05/22 10:04:21;;;;;;;2.13;0.88;;;21.90;50.30;;;;;;6292490;28;20055;-65
2021/05/22 10:07:49;;;;;;;3.22;0.60;;;21.90;50.40;;;;;;6292161;28;20547;-65
2021/05/22 10:10:53;;;;;;;1.50;0.68;;;21.90;50.40;;;;;;6285031;28;20037;-65
2021/05/22 10:13:54;;;;;;;4.25;0.63;;;21.90;50.40;;;;;;6293586;28;20473;-65
2021/05/22 10:16:55;;;;;;;1.98;0.70;;;21.90;50.30;;;;;;6293611;28;20072;-65
2021/05/22 10:19:57;;;;;;;1.65;0.82;;;21.90;50.40;;;;;;6294928;28;20016;-65
2021/05/22 10:22:58;;;;;;;2.50;0.85;;;21.90;50.40;;;;;;6293702;28;20021;-66
2021/05/22 10:25:59;;;;;;;1.80;0.80;;;21.90;50.40;;;;;;6293507;28;20024;-64
2021/05/22 10:29:00;;;;;;;3.67;0.82;;;21.90;50.40;;;;;;6293497;28;20029;-66
2021/05/22 10:32:01;;;;;;;3.00;0.80;;;21.90;50.40;;;;;;6293413;28;20024;-66
2021/05/22 10:35:24;;;;;;;1.45;0.68;;;21.90;50.40;;;;;;6292575;28;20033;-65
2021/05/22 10:38:33;;;;;;;1.40;0.70;;;21.90;50.30;;;;;;6268159;28;20608;-66
2021/05/22 10:41:38;;;;;;;4.93;0.90;;;21.90;50.20;;;;;;6288455;28;20020;-66
2021/05/22 10:44:39;;;;;;;2.45;0.68;;;21.90;50.20;;;;;;6316313;28;20162;-66
2021/05/22 10:47:40;;;;;;;2.22;0.50;;;21.90;50.20;;;;;;6297545;28;20024;-65
2021/05/22 10:50:46;;;;;;;2.53;0.73;;;21.90;50.30;;;;;;6298524;28;20044;-66
2021/05/22 10:54:22;;;;;;;3.38;0.82;;;21.90;50.30;;;;;;6297548;28;20021;-65
2021/05/22 10:57:24;;;;;;;3.15;0.70;;;21.90;50.30;;;;;;6295901;28;20589;-66
2021/05/22 11:00:26;;;;;;;2.00;0.70;;;21.90;50.30;;;;;;6294539;28;20521;-65
2021/05/22 11:03:26;;;;;;;1.88;0.88;;;21.90;50.30;;;;;;6319116;28;20035;-65
2021/05/22 11:06:57;;;;;;;0.93;0.40;;;21.90;50.30;;;;;;6303245;28;20078;-65
2021/05/22 11:09:57;;;;;;;1.95;0.60;;;21.90;50.30;;;;;;6296567;28;20083;-65
2021/05/22 11:12:58;;;;;;;1.98;0.80;;;21.90;50.40;;;;;;6297896;28;20095;-65
2021/05/22 11:16:02;;;;;;;1.85;0.63;;;21.90;50.30;;;;;;6296165;28;20024;-65
2021/05/22 11:19:03;;;;;;;2.70;0.80;;;21.90;50.40;;;;;;6295142;28;20070;-65
2021/05/22 11:22:16;;;;;;;2.08;0.52;;;21.90;50.40;;;;;;6296430;28;20021;-65
2021/05/22 11:25:20;;;;;;;1.30;0.60;;;21.90;50.40;;;;;;6301478;28;20227;-65
2021/05/22 11:28:23;;;;;;;2.50;0.60;;;21.90;50.40;;;;;;6308783;28;20042;-65
2021/05/22 11:31:33;;;;;;;1.58;0.68;;;21.90;50.70;;;;;;6302542;28;20031;-65
2021/05/22 11:34:34;;;;;;;3.30;0.77;;;22.00;50.60;;;;;;6288754;28;20028;-65
2021/05/22 11:37:35;;;;;;;2.13;0.77;;;22.10;50.70;;;;;;6299623;28;20478;-65
2021/05/22 11:40:35;;;;;;;3.25;0.60;;;22.10;50.80;;;;;;6296098;28;20035;-65
2021/05/22 11:43:41;;;;;;;5.57;0.50;;;22.10;50.80;;;;;;6298058;28;20024;-65
2021/05/22 11:46:51;;;;;;;1.00;0.60;;;22.10;50.70;;;;;;6297234;28;20056;-65
2021/05/22 11:49:51;;;;;;;1.75;0.60;;;22.20;50.30;;;;;;6287497;28;20545;-65
2021/05/22 11:52:52;;;;;;;3.88;0.50;;;22.20;50.70;;;;;;6283836;28;20036;-66
2021/05/22 11:56:03;;;;;;;3.72;0.50;;;22.20;50.50;;;;;;6294784;28;20032;-66
2021/05/22 11:59:06;;;;;;;1.52;0.68;;;22.20;50.60;;;;;;6297284;28;20078;-65
2021/05/22 12:02:07;;;;;;;2.80;0.70;;;22.10;50.70;;;;;;6289177;28;20017;-65
2021/05/22 12:05:09;;;;;;;1.08;0.50;;;22.10;50.70;;;;;;6303362;28;20105;-66
2021/05/22 12:08:17;;;;;;;0.60;0.47;;;22.10;50.70;;;;;;6298888;28;20031;-66
2021/05/22 12:11:20;;;;;;;1.00;0.40;;;22.10;50.70;;;;;;6310532;28;20493;-66
2021/05/22 12:14:21;;;;;;;2.30;0.63;;;22.10;50.70;;;;;;6298729;28;20028;-66
2021/05/22 12:17:22;;;;;;;1.48;0.57;;;22.10;50.70;;;;;;6300498;28;20031;-66
2021/05/22 12:20:24;;;;;;;2.35;0.60;;;22.10;50.50;;;;;;6303147;28;20092;-66
2021/05/22 12:23:29;;;;;;;1.00;0.45;;;22.10;50.70;;;;;;6308692;28;20048;-66
2021/05/22 12:26:30;;;;;;;;;;;22.20;50.70;;;;;;6294868;28;20032;-66
2021/05/22 12:29:31;;;;;;;1.10;0.50;;;22.20;50.60;;;;;;6295819;28;19931;-67
2021/05/22 12:32:32;;;;;;;2.92;0.70;;;22.20;50.80;;;;;;6295993;28;20385;-66
2021/05/22 12:35:33;;;;;;;1.55;0.52;;;22.20;51.10;;;;;;6294061;28;20025;-65
2021/05/22 12:38:37;;;;;;;1.63;0.60;;;22.20;50.60;;;;;;6293758;28;20021;-66
2021/05/22 12:41:39;;;;;;;0.77;0.40;;;22.20;50.70;;;;;;6311102;28;20023;-66
2021/05/22 12:44:40;;;;;;;4.88;0.50;;;22.20;50.80;;;;;;6299811;28;20024;-66
2021/05/22 12:47:48;;;;;;;1.98;0.63;;;22.20;50.70;;;;;;6294127;28;20035;-65
2021/05/22 12:50:49;;;;;;;0.60;0.43;;;22.20;50.70;;;;;;6301762;28;20036;-66
2021/05/22 12:53:50;;;;;;;1.15;0.60;;;22.20;50.80;;;;;;6303372;28;20013;-66
2021/05/22 12:56:57;;;;;;;1.08;0.40;;;22.20;50.80;;;;;;6293645;28;20108;-65
2021/05/22 12:59:58;;;;;;;0.63;0.43;;;22.20;50.70;;;;;;6294601;28;20036;-65
2021/05/22 13:03:01;;;;;;;3.08;0.63;;;22.20;50.70;;;;;;6305542;28;20141;-65
2021/05/22 13:06:02;;;;;;;4.78;0.50;;;22.20;50.80;;;;;;6299222;28;20111;-66
2021/05/22 13:09:07;;;;;;;1.38;0.50;;;22.20;50.60;;;;;;6312570;28;20038;-65
2021/05/22 13:12:07;;;;;;;0.63;0.45;;;22.20;50.50;;;;;;6306627;28;20028;-66
2021/05/22 13:15:14;;;;;;;1.10;0.45;;;22.20;51.10;;;;;;6306026;28;20032;-65
2021/05/22 13:18:25;;;;;;;3.35;0.50;;;22.20;50.40;;;;;;6273486;28;20025;-65
2021/05/22 13:21:38;;;;;;;1.38;0.50;;;22.20;50.60;;;;;;6298932;28;20020;-65
2021/05/22 13:25:09;;;;;;;0.90;0.40;;;22.20;50.40;;;;;;6297909;28;20033;-66
2021/05/22 13:28:11;;;;;;;0.77;0.40;;;22.20;50.50;;;;;;6296609;28;20024;-66
2021/05/22 13:31:25;;;;;;;1.73;0.40;;;22.20;50.70;;;;;;6301922;28;20143;-66
2021/05/22 13:34:25;;;;;;;0.50;0.30;;;22.20;50.50;;;;;;6296099;28;20036;-65
2021/05/22 13:37:26;;;;;;;1.88;0.50;;;22.20;50.70;;;;;;6305843;28;20047;-65
2021/05/22 13:40:31;;;;;;;1.67;0.40;;;22.20;50.70;;;;;;6301663;28;20044;-66
2021/05/22 13:43:33;;;;;;;;;;;22.20;50.50;;;;;;6313102;28;20028;-66
2021/05/22 13:46:34;;;;;;;1.58;0.30;;;22.20;50.60;;;;;;6316061;28;19958;-65
2021/05/22 13:49:34;;;;;;;1.15;0.40;;;22.20;50.60;;;;;;6313852;28;20024;-65
2021/05/22 13:52:35;;;;;;;0.50;0.40;;;22.20;50.60;;;;;;6311138;28;20106;-65
2021/05/22 13:55:36;;;;;;;1.33;0.35;;;22.20;50.70;;;;;;6312893;28;20077;-65
2021/05/22 13:58:37;;;;;;;1.80;0.30;;;22.20;50.70;;;;;;6306678;28;20036;-66
2021/05/22 14:01:38;;;;;;;3.33;0.40;;;22.20;51.40;;;;;;6301086;28;20074;-66
2021/05/22 14:04:39;;;;;;;1.63;0.57;;;22.20;50.70;;;;;;6310672;28;20081;-66
2021/05/22 14:07:40;;;;;;;0.75;0.43;;;22.20;50.70;;;;;;6304260;28;20484;-65
2021/05/22 14:10:40;;;;;;;1.33;0.30;;;22.20;50.60;;;;;;6309543;28;20039;-65
2021/05/22 14:13:42;;;;;;;2.72;0.47;;;22.20;50.70;;;;;;6302923;28;20055;-65
2021/05/22 14:16:42;;;;;;;1.35;0.30;;;22.20;50.50;;;;;;6300499;28;20078;-64
2021/05/22 14:19:43;;;;;;;0.95;0.52;;;22.20;50.60;;;;;;6307764;28;20021;-65
2021/05/22 14:22:45;;;;;;;2.10;0.35;;;22.20;50.60;;;;;;6307632;28;20055;-65
2021/05/22 14:25:46;;;;;;;1.60;0.50;;;22.20;50.60;;;;;;6311086;28;20047;-65
2021/05/22 14:28:46;;;;;;;1.58;0.43;;;22.20;50.80;;;;;;6290937;28;20504;-65
2021/05/22 14:31:48;;;;;;;0.68;0.40;;;22.20;50.80;;;;;;6314183;28;20036;-65
2021/05/22 14:34:48;;;;;;;2.45;0.50;;;22.20;50.80;;;;;;6319125;28;20555;-65
2021/05/22 14:37:50;;;;;;;0.88;0.40;;;22.20;50.70;;;;;;6305438;28;20028;-66
2021/05/22 14:40:51;;;;;;;1.05;0.52;;;22.20;50.80;;;;;;6299445;28;20028;-66
2021/05/22 14:43:52;;;;;;;1.20;0.30;;;22.20;50.80;;;;;;6313592;28;20428;-68
2021/05/22 14:46:53;;;;;;;2.00;0.30;;;22.20;50.70;;;;;;6298516;28;20071;-69
2021/05/22 14:49:53;;;;;;;1.10;0.20;;;22.20;50.60;;;;;;6295271;28;20055;-69
2021/05/22 14:52:54;;;;;;;4.53;0.50;;;22.20;50.80;;;;;;6294971;28;20025;-69
2021/05/22 14:55:55;;;;;;;1.20;0.40;;;22.20;50.80;;;;;;6294178;28;20094;-69
2021/05/22 14:58:55;;;;;;;1.42;0.40;;;22.20;50.60;;;;;;6284713;28;20025;-68
2021/05/22 15:01:56;;;;;;;0.70;0.40;;;22.20;50.80;;;;;;6296397;28;20398;-69
2021/05/22 15:04:57;;;;;;;0.63;0.20;;;22.20;50.80;;;;;;6317726;28;20107;-68
2021/05/22 15:07:58;;;;;;;0.70;0.40;;;22.20;50.70;;;;;;6301525;28;20028;-68
2021/05/22 15:10:59;;;;;;;2.17;0.38;;;22.20;50.60;;;;;;6310249;28;20044;-69
2021/05/22 15:13:59;;;;;;;0.40;0.38;;;22.20;50.80;;;;;;6308532;28;20081;-68
2021/05/22 15:17:01;;;;;;;1.10;0.47;;;22.20;50.60;;;;;;6306814;28;20094;-68
2021/05/22 15:20:02;;;;;;;0.63;0.20;;;22.20;50.70;;;;;;6311128;28;20023;-68
2021/05/22 15:23:03;;;;;;;2.13;0.40;;;22.20;50.60;;;;;;6298399;28;20031;-68
2021/05/22 15:26:05;;;;;;;1.05;0.50;;;22.20;50.70;;;;;;6295405;28;20385;-69
2021/05/22 15:29:06;;;;;;;0.55;0.20;;;22.20;50.60;;;;;;6280738;28;20437;-68
2021/05/22 15:32:06;;;;;;;0.82;0.30;;;22.20;50.70;;;;;;6296589;28;20082;-68
2021/05/22 15:35:09;;;;;;;1.40;0.30;;;22.20;50.70;;;;;;6271523;28;20032;-68
2021/05/22 15:38:10;;;;;;;1.67;0.30;;;22.20;50.80;;;;;;6289012;28;20029;-68
2021/05/22 15:41:11;;;;;;;3.13;0.40;;;22.20;50.70;;;;;;6294250;28;20082;-69
2021/05/22 15:44:14;;;;;;;1.20;0.20;;;22.20;50.60;;;;;;6292604;28;20024;-68
2021/05/22 15:47:23;;;;;;;2.63;0.50;;;22.20;50.70;;;;;;6283225;28;20020;-69
2021/05/22 16:00:16;;;;;;;2.95;0.30;;;22.30;50.80;;;;;;6285855;28;20037;-68
2021/05/22 16:03:30;;;;;;;0.73;0.40;;;22.20;50.60;;;;;;6301410;28;20020;-64